Sunbury, North Carolina
Current Conditions -  °F | °C
As of 5:35 PM on Friday 24 Oct 2014 (Local Time) from KCPK Reporting Station
Clear Clear  
Wind Chill: 70°   Ceiling: Unl
Heat Index: 70°   Visibility: 10mi
Dew Point: 48°   Wind: 5mph
Humidity: 46%   Direction: 290°WNW
Pressure: 29.92"   Gusts: NA
Location:  36.44°N, 76.61°W
Report Text: KCPK 242135Z AUTO 29004KT 10SM CLR 21/09 A2992 RMK AO2
Loading
Personal Weather Stations






























Interactive Weather Map
Tropical Storm Tracking
New forecast layout! Learn more

10-Day Weather Forecast

Advertisements
Track Severe Weather on mobile